Alginet, Spain
Current Conditions -  °F | °C
As of 12:00 AM on Friday 21 Nov 2014 (Local Time) from LEVC Reporting Station
Overcast Overcast  
Wind Chill: 61°   Ceiling: 3200
Heat Index: 61°   Visibility: 6mi
Dew Point: 55°   Wind: 0mph
Humidity: 82%   Direction: NA
Pressure: 30.15"   Gusts: NA
Location:  39.27°N, 0.47°W
Report Text: LEVC 202300Z 00000KT 9999 FEW020 OVC032 16/13 Q1021 NOSIG
Loading
Personal Weather Stations






























Interactive Weather Map New forecast layout! Learn more

10-Day Weather Forecast

Advertisements
Track Severe Weather on mobile